Roslyn — WDH3835 — position and weather

sailwx.info

Track history (hours):
 
Tides and Currents Weather Stations Pressure Air Temp Water Temp Dewpoint Dewpoint Depression Visibility Wind Speed Wind Dir Waves Ship Positions

Roslyn

Owner: N.R. Broussard Landing, Inc., Abbeville, LA. More information available from US FCC via Universal Licensing System and Coast Guard Vessel Documentation Center.

Last reported at 2017-Oct-31 10:17 UTC. Time now 2017-Dec-12 12:28 UTC.
Position N 29°47' W 092°11'.
Warning: this ship's position is 42 days out of date.

Length 20 m; draft 2.4 m.

Type: Tug. MMSI: 367611430.

Date/timePositionNaut miles runAvg speedWind from/ knotsBaromVisibWave heightAir tempDewpointWater temp
2017-Oct-31 10:17N 29°47' W 092°11'0 0.0
2017-Oct-31 10:01N 29°47' W 092°11'0 0.0
2017-Oct-31 09:31N 29°47' W 092°11'0 0.0
2017-Oct-31 09:01N 29°47' W 092°11'0 0.0
2017-Oct-31 08:30N 29°47' W 092°11'0 0.0
2017-Oct-31 08:01N 29°47' W 092°11'0 0.0
2017-Oct-31 07:31N 29°47' W 092°11'0 0.0
2017-Oct-31 07:01N 29°47' W 092°11'1 1.8
2017-Oct-31 06:31N 29°47' W 092°10'1 3.0
2017-Oct-31 06:01N 29°47' W 092°09'1 3.0
2017-Oct-31 05:31N 29°46' W 092°08'2 4.3
2017-Oct-31 05:01N 29°44' W 092°06'5 0.2
2017-Oct-30 07:17N 29°40' W 092°03'1 5.0
2017-Oct-30 07:01N 29°41' W 092°04'3 5.1
2017-Oct-30 06:30N 29°43' W 092°06'3 5.1
2017-Oct-30 06:01N 29°45' W 092°07'3 5.1
2017-Oct-30 05:30N 29°47' W 092°09'2 3.6
2017-Oct-30 05:01N 29°47' W 092°11'1 2.4
2017-Oct-30 04:31N 29°47' W 092°10'2 4.4
2017-Oct-30 04:00N 29°46' W 092°08'3 5.1
2017-Oct-30 03:31N 29°44' W 092°06'4 0.2
2017-Oct-29 06:57N 29°41' W 092°03'2 4.2
2017-Oct-29 06:31N 29°42' W 092°05'2 3.8
2017-Oct-29 06:01N 29°44' W 092°06'3 5.1
2017-Oct-29 05:31N 29°46' W 092°08'2 4.9
2017-Oct-29 05:01N 29°47' W 092°10'0 0.2
2017-Oct-29 04:31N 29°47' W 092°10'0 0.0
2017-Oct-29 04:01N 29°47' W 092°10'1 0.1
2017-Oct-28 19:01N 29°47' W 092°11'0 0.0
2017-Oct-28 18:30N 29°47' W 092°11'0 0.0
2017-Oct-28 18:00N 29°47' W 092°11'0 0.0
2017-Oct-28 17:31N 29°47' W 092°11'0 0.0
2017-Oct-28 17:01N 29°47' W 092°11'0 0.0
2017-Oct-28 16:31N 29°47' W 092°11'0 0.0
2017-Oct-28 16:00N 29°47' W 092°11'0 0.0
2017-Oct-28 15:31N 29°47' W 092°11'0 0.0
2017-Oct-28 15:00N 29°47' W 092°11'0 0.0
2017-Oct-28 14:31N 29°47' W 092°11'1 1.2
2017-Oct-28 14:00N 29°47' W 092°11'0 0.7
2017-Oct-28 13:31N 29°47' W 092°10'1 1.6
2017-Oct-28 13:01N 29°47' W 092°11'0 0.0
2017-Oct-28 12:31N 29°47' W 092°11'0 0.0
2017-Oct-28 12:01N 29°47' W 092°11'0 0.0
2017-Oct-28 11:31N 29°47' W 092°11'0 0.0
2017-Oct-28 11:01N 29°47' W 092°11'0 0.0
2017-Oct-28 10:31N 29°47' W 092°11'0 0.0
2017-Oct-28 10:01N 29°47' W 092°11'0 0.0
2017-Oct-28 09:30N 29°47' W 092°11'0 0.0
2017-Oct-28 09:01N 29°47' W 092°11'0 0.0
2017-Oct-28 08:31N 29°47' W 092°11'0 0.0
2017-Oct-28 08:01N 29°47' W 092°11'0 0.0
2017-Oct-28 07:31N 29°47' W 092°11'0 0.0
2017-Oct-28 07:01N 29°47' W 092°11'0 0.0
2017-Oct-28 06:31N 29°47' W 092°11'0 0.0
2017-Oct-28 06:01N 29°47' W 092°11'0 0.0
2017-Oct-28 05:31N 29°47' W 092°11'0 0.0
2017-Oct-28 05:01N 29°47' W 092°11'0 0.0
2017-Oct-28 04:31N 29°47' W 092°11'0 0.0
2017-Oct-28 04:01N 29°47' W 092°11'0 0.0
2017-Oct-28 03:31N 29°47' W 092°11'0 0.0
2017-Oct-28 03:01N 29°47' W 092°11'0 0.0
2017-Oct-28 02:31N 29°47' W 092°11'0 0.0
2017-Oct-28 02:01N 29°47' W 092°11'0 0.0
2017-Oct-28 01:31N 29°47' W 092°11'0 0.0
2017-Oct-28 01:01N 29°47' W 092°11'0 0.0
2017-Oct-28 00:31N 29°47' W 092°11'0 0.0
2017-Oct-28 00:01N 29°47' W 092°11'0 0.0
2017-Oct-27 23:31N 29°47' W 092°11'0 0.0
2017-Oct-27 23:01N 29°47' W 092°11'0 0.0
2017-Oct-27 22:31N 29°47' W 092°11'1 1.4
2017-Oct-27 22:00N 29°47' W 092°10'1 1.5
2017-Oct-27 21:31N 29°47' W 092°11'0 0.0
2017-Oct-27 21:01N 29°47' W 092°11'0 0.0
2017-Oct-27 20:31N 29°47' W 092°11'0 0.0
2017-Oct-27 20:01N 29°47' W 092°11'1 1.7
2017-Oct-27 19:30N 29°47' W 092°10'0 0.0
2017-Oct-27 19:01N 29°47' W 092°10'0 0.2
2017-Oct-27 18:31N 29°47' W 092°10'1 1.6
2017-Oct-27 18:01N 29°47' W 092°11'0 0.1
2017-Oct-27 17:30N 29°47' W 092°11'0 0.0
2017-Oct-27 17:01N 29°47' W 092°11'0 0.0
2017-Oct-27 16:31N 29°47' W 092°11'0 0.0
2017-Oct-27 16:01N 29°47' W 092°11'0 0.0
2017-Oct-27 15:31N 29°47' W 092°11'0 0.0
2017-Oct-27 15:01N 29°47' W 092°11'0 0.0
2017-Oct-27 14:30N 29°47' W 092°11'0 0.0
2017-Oct-27 14:01N 29°47' W 092°11'0 0.0
2017-Oct-27 13:31N 29°47' W 092°11'0 0.0
2017-Oct-27 13:01N 29°47' W 092°11'0 0.0
2017-Oct-27 12:30N 29°47' W 092°11'0 0.0
2017-Oct-27 12:01N 29°47' W 092°11'0 0.0
2017-Oct-27 11:31N 29°47' W 092°11'0 0.0
2017-Oct-27 11:01N 29°47' W 092°11'0 0.0
2017-Oct-27 10:31N 29°47' W 092°11'0 0.0
2017-Oct-27 10:01N 29°47' W 092°11'0 0.0
2017-Oct-27 09:31N 29°47' W 092°11'0 0.0
2017-Oct-27 09:01N 29°47' W 092°11'0 0.0
2017-Oct-27 08:31N 29°47' W 092°11'0 0.0
2017-Oct-27 08:01N 29°47' W 092°11'0 0.0
2017-Oct-27 07:30N 29°47' W 092°11'0 0.0
2017-Oct-27 07:01N 29°47' W 092°11'0 0.0
2017-Oct-27 06:31N 29°47' W 092°11'0 0.0
2017-Oct-27 06:01N 29°47' W 092°11'0 0.0
2017-Oct-27 05:31N 29°47' W 092°11'0 0.0
2017-Oct-27 05:01N 29°47' W 092°11'0 0.0
2017-Oct-27 04:31N 29°47' W 092°11'0 0.0
2017-Oct-27 04:01N 29°47' W 092°11'0 0.0
2017-Oct-27 03:30N 29°47' W 092°11'0 0.0
2017-Oct-27 03:01N 29°47' W 092°11'0 0.0
2017-Oct-27 02:31N 29°47' W 092°11'0 0.0
2017-Oct-27 02:01N 29°47' W 092°11'0 0.0
2017-Oct-27 01:31N 29°47' W 092°11'0 0.0
2017-Oct-27 01:00N 29°47' W 092°11'0 0.0
2017-Oct-27 00:31N 29°47' W 092°11'0 0.0
2017-Oct-27 00:01N 29°47' W 092°11'0 0.0
2017-Oct-26 23:31N 29°47' W 092°11'0 0.0
2017-Oct-26 23:01N 29°47' W 092°11'0 0.0
2017-Oct-26 22:31N 29°47' W 092°11'0 0.0
2017-Oct-26 22:01N 29°47' W 092°11'0 0.0
2017-Oct-26 21:31N 29°47' W 092°11'0 0.0
2017-Oct-26 21:00N 29°47' W 092°11'0 0.0
2017-Oct-26 20:31N 29°47' W 092°11'0 0.0
2017-Oct-26 20:01N 29°47' W 092°11'0 0.0
2017-Oct-26 19:31N 29°47' W 092°11'0 0.0
2017-Oct-26 19:01N 29°47' W 092°11'0 0.0
2017-Oct-26 18:31N 29°47' W 092°11'0 0.0
2017-Oct-26 18:01N 29°47' W 092°11'0 0.0
2017-Oct-26 17:31N 29°47' W 092°11'0 0.0
2017-Oct-26 17:01N 29°47' W 092°11'0 0.0
2017-Oct-26 16:31N 29°47' W 092°11'0 0.0
2017-Oct-26 16:00N 29°47' W 092°11'0 0.0
2017-Oct-26 15:31N 29°47' W 092°11'0 0.0
2017-Oct-26 15:01N 29°47' W 092°11'0 0.0
2017-Oct-26 14:31N 29°47' W 092°11'0 0.0
2017-Oct-26 14:01N 29°47' W 092°11'0 0.0
2017-Oct-26 13:30N 29°47' W 092°11'0 0.0
2017-Oct-26 13:00N 29°47' W 092°11'0 0.0
2017-Oct-26 12:30N 29°47' W 092°11'0 0.0
2017-Oct-26 12:00N 29°47' W 092°11'0 0.0
2017-Oct-26 11:30N 29°47' W 092°11'0 0.0
2017-Oct-26 11:00N 29°47' W 092°11'0 0.0
2017-Oct-26 10:30N 29°47' W 092°11'0 0.0
2017-Oct-26 10:00N 29°47' W 092°11'0 0.0
2017-Oct-26 09:30N 29°47' W 092°11'0 0.0
2017-Oct-26 09:00N 29°47' W 092°11'0 0.0
2017-Oct-26 08:30N 29°47' W 092°11'0 0.0
2017-Oct-26 08:00N 29°47' W 092°11'0 0.0
2017-Oct-26 07:30N 29°47' W 092°11'0 0.0
2017-Oct-26 07:00N 29°47' W 092°11'0 0.0
2017-Oct-26 06:30N 29°47' W 092°11'0 0.0
2017-Oct-26 06:00N 29°47' W 092°11'0 0.0
2017-Oct-26 05:30N 29°47' W 092°11'0 0.0
2017-Oct-26 05:00N 29°47' W 092°11'0 0.0
2017-Oct-26 04:30N 29°47' W 092°11'0 0.0
2017-Oct-26 04:00N 29°47' W 092°11'0 0.0
2017-Oct-26 03:30N 29°47' W 092°11'0 0.0
2017-Oct-26 03:00N 29°47' W 092°11'0 0.0
2017-Oct-26 02:30N 29°47' W 092°11'0 0.0
2017-Oct-26 02:00N 29°47' W 092°11'0 0.0
2017-Oct-26 01:30N 29°47' W 092°11'0 0.0
2017-Oct-26 01:00N 29°47' W 092°11'0 0.0
2017-Oct-26 00:30N 29°47' W 092°11'0 0.0
2017-Oct-26 00:00N 29°47' W 092°11'0 0.0
2017-Oct-25 23:30N 29°47' W 092°11'0 0.0
2017-Oct-25 23:00N 29°47' W 092°11'0 0.0
2017-Oct-25 22:30N 29°47' W 092°11'0 0.0
2017-Oct-25 22:00N 29°47' W 092°11'0 0.0
2017-Oct-25 21:30N 29°47' W 092°11'0 0.0
2017-Oct-25 21:00N 29°47' W 092°11'0 0.0
2017-Oct-25 20:30N 29°47' W 092°11'0 0.0
2017-Oct-25 20:00N 29°47' W 092°11'0 0.0
2017-Oct-25 19:30N 29°47' W 092°11'0 0.0
2017-Oct-25 19:00N 29°47' W 092°11'0 0.0
2017-Oct-25 18:30N 29°47' W 092°11'0 0.0
2017-Oct-25 18:00N 29°47' W 092°11'0 0.0
2017-Oct-25 17:30N 29°47' W 092°11'0 0.0
2017-Oct-25 17:00N 29°47' W 092°11'0 0.0
2017-Oct-25 16:30N 29°47' W 092°11'0 0.0
2017-Oct-25 16:00N 29°47' W 092°11'0 0.0
2017-Oct-25 15:30N 29°47' W 092°11'0 0.0
2017-Oct-25 15:00N 29°47' W 092°11'1 1.7
2017-Oct-25 14:30N 29°47' W 092°10'0 0.0
2017-Oct-25 14:00N 29°47' W 092°10'0 0.7
2017-Oct-25 13:30N 29°47' W 092°11'1 1.1
2017-Oct-25 13:00N 29°47' W 092°11'0 0.0
2017-Oct-25 12:30N 29°47' W 092°11'0 0.0
2017-Oct-25 12:00N 29°47' W 092°11'0 0.0
2017-Oct-25 11:30N 29°47' W 092°11'0 0.0
2017-Oct-25 11:00N 29°47' W 092°11'0 0.0
2017-Oct-25 10:30N 29°47' W 092°11'0 0.0
2017-Oct-25 10:00N 29°47' W 092°11'0 0.0
2017-Oct-25 09:30N 29°47' W 092°11'0 0.0
2017-Oct-25 09:00N 29°47' W 092°11'0 0.0
2017-Oct-25 08:30N 29°47' W 092°11'0 0.0
2017-Oct-25 08:00N 29°47' W 092°11'0 0.0
2017-Oct-25 07:30N 29°47' W 092°11'0 0.0
2017-Oct-25 07:00N 29°47' W 092°11'0 0.0
2017-Oct-25 06:30N 29°47' W 092°11'0 0.0
2017-Oct-25 06:00N 29°47' W 092°11'0 0.0
2017-Oct-25 05:30N 29°47' W 092°11'0 0.0
2017-Oct-25 05:00N 29°47' W 092°11'0 0.0
2017-Oct-25 04:30N 29°47' W 092°11'0 0.0
2017-Oct-25 04:00N 29°47' W 092°11'0 0.0
2017-Oct-25 03:30N 29°47' W 092°11'0 0.0
2017-Oct-25 03:00N 29°47' W 092°11'0 0.0
2017-Oct-25 02:30N 29°47' W 092°11'0 0.0
2017-Oct-25 02:00N 29°47' W 092°11'0 0.0
2017-Oct-25 01:30N 29°47' W 092°11'0 0.0
2017-Oct-25 01:00N 29°47' W 092°11'0 0.0
2017-Oct-25 00:30N 29°47' W 092°11'0 0.0
2017-Oct-25 00:00N 29°47' W 092°11'0 0.0
2017-Oct-24 23:30N 29°47' W 092°11'1 1.8
2017-Oct-24 23:00N 29°47' W 092°10'0 0.6
2017-Oct-24 22:30N 29°47' W 092°11'0 0.1
2017-Oct-24 22:00N 29°47' W 092°11'0 0.9
2017-Oct-24 21:30N 29°47' W 092°11'0 0.4
2017-Oct-24 21:00N 29°47' W 092°11'0 0.0
2017-Oct-24 20:30N 29°47' W 092°11'0 0.0
2017-Oct-24 20:00N 29°47' W 092°11'0 0.0
2017-Oct-24 19:30N 29°47' W 092°11'0 0.0
2017-Oct-24 19:00N 29°47' W 092°11'0 0.0
2017-Oct-24 18:30N 29°47' W 092°11'0 0.0
2017-Oct-24 18:00N 29°47' W 092°11'0 0.0
2017-Oct-24 17:30N 29°47' W 092°11'0 0.0
2017-Oct-24 17:00N 29°47' W 092°11'0 0.0
2017-Oct-24 16:30N 29°47' W 092°11'0 0.0
2017-Oct-24 16:00N 29°47' W 092°11'0 0.0
2017-Oct-24 15:30N 29°47' W 092°11'0 0.0
2017-Oct-24 15:00N 29°47' W 092°11'0 0.0
2017-Oct-24 14:30N 29°47' W 092°11'0 0.0
2017-Oct-24 14:00N 29°47' W 092°11'0 0.0
2017-Oct-24 13:30N 29°47' W 092°11'0 0.0
2017-Oct-24 13:00N 29°47' W 092°11'0 0.0
2017-Oct-24 12:30N 29°47' W 092°11'0 0.0
2017-Oct-24 12:00N 29°47' W 092°11'0 0.0
2017-Oct-24 11:30N 29°47' W 092°11'0 0.0
2017-Oct-24 11:00N 29°47' W 092°11'0 0.0
2017-Oct-24 10:30N 29°47' W 092°11'0 0.0
2017-Oct-24 10:00N 29°47' W 092°11'0 0.0
2017-Oct-24 09:30N 29°47' W 092°11'0 0.0
2017-Oct-24 09:00N 29°47' W 092°11'0 0.0
2017-Oct-24 08:30N 29°47' W 092°11'0 0.0
2017-Oct-24 08:00N 29°47' W 092°11'0 0.0
2017-Oct-24 07:30N 29°47' W 092°11'0 0.0
2017-Oct-24 07:00N 29°47' W 092°11'0 0.0
2017-Oct-24 06:30N 29°47' W 092°11'0 0.0
2017-Oct-24 06:00N 29°47' W 092°11'0 0.0
2017-Oct-24 05:30N 29°47' W 092°11'0 0.0
2017-Oct-24 05:00N 29°47' W 092°11'0 0.0
2017-Oct-24 04:30N 29°47' W 092°11'0 0.0
2017-Oct-24 04:00N 29°47' W 092°11'0 0.0
2017-Oct-24 03:30N 29°47' W 092°11'0 0.0
2017-Oct-24 03:00N 29°47' W 092°11'0 0.0
2017-Oct-24 02:30N 29°47' W 092°11'0 0.0
2017-Oct-24 02:00N 29°47' W 092°11'0 0.0
2017-Oct-24 01:30N 29°47' W 092°11'0 0.0
2017-Oct-24 01:00N 29°47' W 092°11'0 0.0
2017-Oct-24 00:30N 29°47' W 092°11'0 0.0
2017-Oct-24 00:00N 29°47' W 092°11'0 0.0
2017-Oct-23 23:30N 29°47' W 092°11'0 0.0
2017-Oct-23 23:00N 29°47' W 092°11'0 0.0
2017-Oct-23 22:30N 29°47' W 092°11'0 0.0
2017-Oct-23 22:00N 29°47' W 092°11'0 0.0
2017-Oct-23 21:30N 29°47' W 092°11'0 0.0
2017-Oct-23 21:00N 29°47' W 092°11'0 0.0
2017-Oct-23 20:30N 29°47' W 092°11'0 0.0
2017-Oct-23 20:00N 29°47' W 092°11'0 0.0
2017-Oct-23 19:30N 29°47' W 092°11'0 0.0
2017-Oct-23 19:00N 29°47' W 092°11'0 0.0
2017-Oct-23 18:30N 29°47' W 092°11'0 0.0
2017-Oct-23 18:00N 29°47' W 092°11'0 0.0
2017-Oct-23 17:30N 29°47' W 092°11'0 0.0
2017-Oct-23 17:00N 29°47' W 092°11'0 0.0
2017-Oct-23 16:30N 29°47' W 092°11'0 0.0
2017-Oct-23 16:00N 29°47' W 092°11'0 0.5
2017-Oct-23 15:30N 29°47' W 092°11'0 0.8
2017-Oct-23 15:00N 29°47' W 092°11'1 1.2
2017-Oct-23 14:30N 29°47' W 092°11'0 0.0
2017-Oct-23 14:00N 29°47' W 092°11'0 0.6
2017-Oct-23 13:30N 29°47' W 092°11'1 1.2
2017-Oct-23 13:00N 29°47' W 092°10'0 0.0
2017-Oct-23 12:30N 29°47' W 092°10'0 0.0
2017-Oct-23 12:00N 29°47' W 092°10'0 0.2
2017-Oct-23 11:30N 29°47' W 092°10'1 0.1
2017-Oct-23 03:07N 29°47' W 092°11'0 0.1
2017-Oct-23 03:00N 29°47' W 092°11'0 0.0
2017-Oct-23 02:30N 29°47' W 092°11'0 0.0
2017-Oct-23 02:00N 29°47' W 092°11'0 0.0
2017-Oct-23 01:30N 29°47' W 092°11'0 0.0
2017-Oct-23 01:00N 29°47' W 092°11'0 0.0
2017-Oct-23 00:30N 29°47' W 092°11'0 0.0
2017-Oct-23 00:00N 29°47' W 092°11'0 0.0
2017-Oct-22 23:30N 29°47' W 092°11'0 0.0
2017-Oct-22 23:00N 29°47' W 092°11'0 0.0
2017-Oct-22 22:30N 29°47' W 092°11'0 0.0
2017-Oct-22 22:00N 29°47' W 092°11'0 0.0
2017-Oct-22 21:30N 29°47' W 092°11'0 0.0
2017-Oct-22 21:00N 29°47' W 092°11'0 0.0
2017-Oct-22 20:30N 29°47' W 092°11'0 0.0
2017-Oct-22 20:00N 29°47' W 092°11'0 0.0
2017-Oct-22 19:30N 29°47' W 092°11'0 0.0
2017-Oct-22 19:00N 29°47' W 092°11'0 0.0
2017-Oct-22 18:30N 29°47' W 092°11'0 0.0
2017-Oct-22 18:00N 29°47' W 092°11'0 0.0
2017-Oct-22 17:30N 29°47' W 092°11'0 0.0
2017-Oct-22 17:00N 29°47' W 092°11'0 0.0
2017-Oct-22 16:30N 29°47' W 092°11'0 0.0
2017-Oct-22 16:00N 29°47' W 092°11'0 0.0
2017-Oct-22 15:30N 29°47' W 092°11'0 0.0
2017-Oct-22 15:00N 29°47' W 092°11'0 0.0
2017-Oct-22 14:30N 29°47' W 092°11'0 0.0
2017-Oct-22 14:00N 29°47' W 092°11'0 0.0
2017-Oct-22 13:30N 29°47' W 092°11'0 0.0
2017-Oct-22 13:00N 29°47' W 092°11'0 0.0
2017-Oct-22 12:30N 29°47' W 092°11'0 0.0
2017-Oct-22 12:00N 29°47' W 092°11'0 0.0
2017-Oct-22 11:30N 29°47' W 092°11'0 0.0
2017-Oct-22 11:00N 29°47' W 092°11'0 0.0
2017-Oct-22 10:30N 29°47' W 092°11'0 0.0
2017-Oct-22 10:00N 29°47' W 092°11'0 0.0
2017-Oct-22 09:30N 29°47' W 092°11'0 0.0
2017-Oct-22 09:00N 29°47' W 092°11'0 0.0
2017-Oct-22 08:30N 29°47' W 092°11'0 0.0
2017-Oct-22 08:00N 29°47' W 092°11'0 0.0
2017-Oct-22 07:30N 29°47' W 092°11'0 0.0
2017-Oct-22 07:00N 29°47' W 092°11'0 0.0
2017-Oct-22 06:30N 29°47' W 092°11'0 0.0
2017-Oct-22 06:00N 29°47' W 092°11'0 0.0
2017-Oct-22 05:30N 29°47' W 092°11'0 0.0
2017-Oct-22 05:00N 29°47' W 092°11'0 0.0
2017-Oct-22 04:30N 29°47' W 092°11'0 0.0
2017-Oct-22 04:00N 29°47' W 092°11'0 0.0
2017-Oct-22 03:30N 29°47' W 092°11'0 0.0
2017-Oct-22 03:00N 29°47' W 092°11'0 0.0
2017-Oct-22 02:30N 29°47' W 092°11'0 0.0
2017-Oct-22 02:00N 29°47' W 092°11'0 0.0
2017-Oct-22 01:30N 29°47' W 092°11'0 0.0
2017-Oct-22 01:00N 29°47' W 092°11'0 0.0
2017-Oct-22 00:30N 29°47' W 092°11'0 0.0
2017-Oct-22 00:00N 29°47' W 092°11'0 0.0
2017-Oct-21 23:30N 29°47' W 092°11'0 0.0
2017-Oct-21 23:00N 29°47' W 092°11'0 0.0
2017-Oct-21 22:30N 29°47' W 092°11'0 0.0
2017-Oct-21 22:00N 29°47' W 092°11'0 0.0
2017-Oct-21 21:30N 29°47' W 092°11'0 0.0
2017-Oct-21 21:00N 29°47' W 092°11'0 0.0
2017-Oct-21 20:30N 29°47' W 092°11'0 0.0
2017-Oct-21 20:00N 29°47' W 092°11'0 0.0
2017-Oct-21 19:30N 29°47' W 092°11'0 0.0
2017-Oct-21 19:00N 29°47' W 092°11'0 0.0
2017-Oct-21 18:30N 29°47' W 092°11'0 0.0
2017-Oct-21 18:00N 29°47' W 092°11'0 0.0
2017-Oct-21 17:30N 29°47' W 092°11'0 0.0
2017-Oct-21 17:00N 29°47' W 092°11'0 0.0
2017-Oct-21 16:30N 29°47' W 092°11'0 0.0
2017-Oct-21 16:01N 29°47' W 092°11'0 0.0
2017-Oct-21 15:30N 29°47' W 092°11'0 0.0
2017-Oct-21 15:00N 29°47' W 092°11'0 0.0
2017-Oct-21 14:00N 29°47' W 092°11'0 0.0
2017-Oct-21 13:30N 29°47' W 092°11'0 0.0
2017-Oct-21 13:00N 29°47' W 092°11'0 0.0
2017-Oct-21 12:30N 29°47' W 092°11'0 0.0
2017-Oct-21 12:00N 29°47' W 092°11'0 0.0
2017-Oct-21 11:30N 29°47' W 092°11'0 0.0
2017-Oct-21 11:00N 29°47' W 092°11'0 0.0
2017-Oct-21 10:30N 29°47' W 092°11'  
Track history (hours):
 
Tides and Currents Weather Stations Pressure Air Temp Water Temp Dewpoint Dewpoint Depression Visibility Wind Speed Wind Dir Waves Ship Positions

Roslyn

Owner: N.R. Broussard Landing, Inc., Abbeville, LA. More information available from US FCC via Universal Licensing System and Coast Guard Vessel Documentation Center.

Last reported at 2017-Oct-31 10:17 UTC. Time now 2017-Dec-12 12:28 UTC.
Position N 29°47' W 092°11'.
Warning: this ship's position is 42 days out of date.

Length 20 m; draft 2.4 m.

Type: Tug. MMSI: 367611430.

Date/timePositionNaut miles runAvg speedWind from/ knotsBaromVisibWave heightAir tempDewpointWater temp
2017-Oct-31 10:17N 29°47' W 092°11'0 0.0
2017-Oct-31 10:01N 29°47' W 092°11'0 0.0
2017-Oct-31 09:31N 29°47' W 092°11'0 0.0
2017-Oct-31 09:01N 29°47' W 092°11'0 0.0
2017-Oct-31 08:30N 29°47' W 092°11'0 0.0
2017-Oct-31 08:01N 29°47' W 092°11'0 0.0
2017-Oct-31 07:31N 29°47' W 092°11'0 0.0
2017-Oct-31 07:01N 29°47' W 092°11'1 1.8
2017-Oct-31 06:31N 29°47' W 092°10'1 3.0
2017-Oct-31 06:01N 29°47' W 092°09'1 3.0
2017-Oct-31 05:31N 29°46' W 092°08'2 4.3
2017-Oct-31 05:01N 29°44' W 092°06'5 0.2
2017-Oct-30 07:17N 29°40' W 092°03'1 5.0
2017-Oct-30 07:01N 29°41' W 092°04'3 5.1
2017-Oct-30 06:30N 29°43' W 092°06'3 5.1
2017-Oct-30 06:01N 29°45' W 092°07'3 5.1
2017-Oct-30 05:30N 29°47' W 092°09'2 3.6
2017-Oct-30 05:01N 29°47' W 092°11'1 2.4
2017-Oct-30 04:31N 29°47' W 092°10'2 4.4
2017-Oct-30 04:00N 29°46' W 092°08'3 5.1
2017-Oct-30 03:31N 29°44' W 092°06'4 0.2
2017-Oct-29 06:57N 29°41' W 092°03'2 4.2
2017-Oct-29 06:31N 29°42' W 092°05'2 3.8
2017-Oct-29 06:01N 29°44' W 092°06'3 5.1
2017-Oct-29 05:31N 29°46' W 092°08'2 4.9
2017-Oct-29 05:01N 29°47' W 092°10'0 0.2
2017-Oct-29 04:31N 29°47' W 092°10'0 0.0
2017-Oct-29 04:01N 29°47' W 092°10'1 0.1
2017-Oct-28 19:01N 29°47' W 092°11'0 0.0
2017-Oct-28 18:30N 29°47' W 092°11'0 0.0
2017-Oct-28 18:00N 29°47' W 092°11'0 0.0
2017-Oct-28 17:31N 29°47' W 092°11'0 0.0
2017-Oct-28 17:01N 29°47' W 092°11'0 0.0
2017-Oct-28 16:31N 29°47' W 092°11'0 0.0
2017-Oct-28 16:00N 29°47' W 092°11'0 0.0
2017-Oct-28 15:31N 29°47' W 092°11'0 0.0
2017-Oct-28 15:00N 29°47' W 092°11'0 0.0
2017-Oct-28 14:31N 29°47' W 092°11'1 1.2
2017-Oct-28 14:00N 29°47' W 092°11'0 0.7
2017-Oct-28 13:31N 29°47' W 092°10'1 1.6
2017-Oct-28 13:01N 29°47' W 092°11'0 0.0
2017-Oct-28 12:31N 29°47' W 092°11'0 0.0
2017-Oct-28 12:01N 29°47' W 092°11'0 0.0
2017-Oct-28 11:31N 29°47' W 092°11'0 0.0
2017-Oct-28 11:01N 29°47' W 092°11'0 0.0
2017-Oct-28 10:31N 29°47' W 092°11'0 0.0
2017-Oct-28 10:01N 29°47' W 092°11'0 0.0
2017-Oct-28 09:30N 29°47' W 092°11'0 0.0
2017-Oct-28 09:01N 29°47' W 092°11'0 0.0
2017-Oct-28 08:31N 29°47' W 092°11'0 0.0
2017-Oct-28 08:01N 29°47' W 092°11'0 0.0
2017-Oct-28 07:31N 29°47' W 092°11'0 0.0
2017-Oct-28 07:01N 29°47' W 092°11'0 0.0
2017-Oct-28 06:31N 29°47' W 092°11'0 0.0
2017-Oct-28 06:01N 29°47' W 092°11'0 0.0
2017-Oct-28 05:31N 29°47' W 092°11'0 0.0
2017-Oct-28 05:01N 29°47' W 092°11'0 0.0
2017-Oct-28 04:31N 29°47' W 092°11'0 0.0
2017-Oct-28 04:01N 29°47' W 092°11'0 0.0
2017-Oct-28 03:31N 29°47' W 092°11'0 0.0
2017-Oct-28 03:01N 29°47' W 092°11'0 0.0
2017-Oct-28 02:31N 29°47' W 092°11'0 0.0
2017-Oct-28 02:01N 29°47' W 092°11'0 0.0
2017-Oct-28 01:31N 29°47' W 092°11'0 0.0
2017-Oct-28 01:01N 29°47' W 092°11'0 0.0
2017-Oct-28 00:31N 29°47' W 092°11'0 0.0
2017-Oct-28 00:01N 29°47' W 092°11'0 0.0
2017-Oct-27 23:31N 29°47' W 092°11'0 0.0
2017-Oct-27 23:01N 29°47' W 092°11'0 0.0
2017-Oct-27 22:31N 29°47' W 092°11'1 1.4
2017-Oct-27 22:00N 29°47' W 092°10'1 1.5
2017-Oct-27 21:31N 29°47' W 092°11'0 0.0
2017-Oct-27 21:01N 29°47' W 092°11'0 0.0
2017-Oct-27 20:31N 29°47' W 092°11'0 0.0
2017-Oct-27 20:01N 29°47' W 092°11'1 1.7
2017-Oct-27 19:30N 29°47' W 092°10'0 0.0
2017-Oct-27 19:01N 29°47' W 092°10'0 0.2
2017-Oct-27 18:31N 29°47' W 092°10'1 1.6
2017-Oct-27 18:01N 29°47' W 092°11'0 0.1
2017-Oct-27 17:30N 29°47' W 092°11'0 0.0
2017-Oct-27 17:01N 29°47' W 092°11'0 0.0
2017-Oct-27 16:31N 29°47' W 092°11'0 0.0
2017-Oct-27 16:01N 29°47' W 092°11'0 0.0
2017-Oct-27 15:31N 29°47' W 092°11'0 0.0
2017-Oct-27 15:01N 29°47' W 092°11'0 0.0
2017-Oct-27 14:30N 29°47' W 092°11'0 0.0
2017-Oct-27 14:01N 29°47' W 092°11'0 0.0
2017-Oct-27 13:31N 29°47' W 092°11'0 0.0
2017-Oct-27 13:01N 29°47' W 092°11'0 0.0
2017-Oct-27 12:30N 29°47' W 092°11'0 0.0
2017-Oct-27 12:01N 29°47' W 092°11'0 0.0
2017-Oct-27 11:31N 29°47' W 092°11'0 0.0
2017-Oct-27 11:01N 29°47' W 092°11'0 0.0
2017-Oct-27 10:31N 29°47' W 092°11'0 0.0
2017-Oct-27 10:01N 29°47' W 092°11'0 0.0
2017-Oct-27 09:31N 29°47' W 092°11'0 0.0
2017-Oct-27 09:01N 29°47' W 092°11'0 0.0
2017-Oct-27 08:31N 29°47' W 092°11'0 0.0
2017-Oct-27 08:01N 29°47' W 092°11'0 0.0
2017-Oct-27 07:30N 29°47' W 092°11'0 0.0
2017-Oct-27 07:01N 29°47' W 092°11'0 0.0
2017-Oct-27 06:31N 29°47' W 092°11'0 0.0
2017-Oct-27 06:01N 29°47' W 092°11'0 0.0
2017-Oct-27 05:31N 29°47' W 092°11'0 0.0
2017-Oct-27 05:01N 29°47' W 092°11'0 0.0
2017-Oct-27 04:31N 29°47' W 092°11'0 0.0
2017-Oct-27 04:01N 29°47' W 092°11'0 0.0
2017-Oct-27 03:30N 29°47' W 092°11'0 0.0
2017-Oct-27 03:01N 29°47' W 092°11'0 0.0
2017-Oct-27 02:31N 29°47' W 092°11'0 0.0
2017-Oct-27 02:01N 29°47' W 092°11'0 0.0
2017-Oct-27 01:31N 29°47' W 092°11'0 0.0
2017-Oct-27 01:00N 29°47' W 092°11'0 0.0
2017-Oct-27 00:31N 29°47' W 092°11'0 0.0
2017-Oct-27 00:01N 29°47' W 092°11'0 0.0
2017-Oct-26 23:31N 29°47' W 092°11'0 0.0
2017-Oct-26 23:01N 29°47' W 092°11'0 0.0
2017-Oct-26 22:31N 29°47' W 092°11'0 0.0
2017-Oct-26 22:01N 29°47' W 092°11'0 0.0
2017-Oct-26 21:31N 29°47' W 092°11'0 0.0
2017-Oct-26 21:00N 29°47' W 092°11'0 0.0
2017-Oct-26 20:31N 29°47' W 092°11'0 0.0
2017-Oct-26 20:01N 29°47' W 092°11'0 0.0
2017-Oct-26 19:31N 29°47' W 092°11'0 0.0
2017-Oct-26 19:01N 29°47' W 092°11'0 0.0
2017-Oct-26 18:31N 29°47' W 092°11'0 0.0
2017-Oct-26 18:01N 29°47' W 092°11'0 0.0
2017-Oct-26 17:31N 29°47' W 092°11'0 0.0
2017-Oct-26 17:01N 29°47' W 092°11'0 0.0
2017-Oct-26 16:31N 29°47' W 092°11'0 0.0
2017-Oct-26 16:00N 29°47' W 092°11'0 0.0
2017-Oct-26 15:31N 29°47' W 092°11'0 0.0
2017-Oct-26 15:01N 29°47' W 092°11'0 0.0
2017-Oct-26 14:31N 29°47' W 092°11'0 0.0
2017-Oct-26 14:01N 29°47' W 092°11'0 0.0
2017-Oct-26 13:30N 29°47' W 092°11'0 0.0
2017-Oct-26 13:00N 29°47' W 092°11'0 0.0
2017-Oct-26 12:30N 29°47' W 092°11'0 0.0
2017-Oct-26 12:00N 29°47' W 092°11'0 0.0
2017-Oct-26 11:30N 29°47' W 092°11'0 0.0
2017-Oct-26 11:00N 29°47' W 092°11'0 0.0
2017-Oct-26 10:30N 29°47' W 092°11'0 0.0
2017-Oct-26 10:00N 29°47' W 092°11'0 0.0
2017-Oct-26 09:30N 29°47' W 092°11'0 0.0
2017-Oct-26 09:00N 29°47' W 092°11'0 0.0
2017-Oct-26 08:30N 29°47' W 092°11'0 0.0
2017-Oct-26 08:00N 29°47' W 092°11'0 0.0
2017-Oct-26 07:30N 29°47' W 092°11'0 0.0
2017-Oct-26 07:00N 29°47' W 092°11'0 0.0
2017-Oct-26 06:30N 29°47' W 092°11'0 0.0
2017-Oct-26 06:00N 29°47' W 092°11'0 0.0
2017-Oct-26 05:30N 29°47' W 092°11'0 0.0
2017-Oct-26 05:00N 29°47' W 092°11'0 0.0
2017-Oct-26 04:30N 29°47' W 092°11'0 0.0
2017-Oct-26 04:00N 29°47' W 092°11'0 0.0
2017-Oct-26 03:30N 29°47' W 092°11'0 0.0
2017-Oct-26 03:00N 29°47' W 092°11'0 0.0
2017-Oct-26 02:30N 29°47' W 092°11'0 0.0
2017-Oct-26 02:00N 29°47' W 092°11'0 0.0
2017-Oct-26 01:30N 29°47' W 092°11'0 0.0
2017-Oct-26 01:00N 29°47' W 092°11'0 0.0
2017-Oct-26 00:30N 29°47' W 092°11'0 0.0
2017-Oct-26 00:00N 29°47' W 092°11'0 0.0
2017-Oct-25 23:30N 29°47' W 092°11'0 0.0
2017-Oct-25 23:00N 29°47' W 092°11'0 0.0
2017-Oct-25 22:30N 29°47' W 092°11'0 0.0
2017-Oct-25 22:00N 29°47' W 092°11'0 0.0
2017-Oct-25 21:30N 29°47' W 092°11'0 0.0
2017-Oct-25 21:00N 29°47' W 092°11'0 0.0
2017-Oct-25 20:30N 29°47' W 092°11'0 0.0
2017-Oct-25 20:00N 29°47' W 092°11'0 0.0
2017-Oct-25 19:30N 29°47' W 092°11'0 0.0
2017-Oct-25 19:00N 29°47' W 092°11'0 0.0
2017-Oct-25 18:30N 29°47' W 092°11'0 0.0
2017-Oct-25 18:00N 29°47' W 092°11'0 0.0
2017-Oct-25 17:30N 29°47' W 092°11'0 0.0
2017-Oct-25 17:00N 29°47' W 092°11'0 0.0
2017-Oct-25 16:30N 29°47' W 092°11'0 0.0
2017-Oct-25 16:00N 29°47' W 092°11'0 0.0
2017-Oct-25 15:30N 29°47' W 092°11'0 0.0
2017-Oct-25 15:00N 29°47' W 092°11'1 1.7
2017-Oct-25 14:30N 29°47' W 092°10'0 0.0
2017-Oct-25 14:00N 29°47' W 092°10'0 0.7
2017-Oct-25 13:30N 29°47' W 092°11'1 1.1
2017-Oct-25 13:00N 29°47' W 092°11'0 0.0
2017-Oct-25 12:30N 29°47' W 092°11'0 0.0
2017-Oct-25 12:00N 29°47' W 092°11'0 0.0
2017-Oct-25 11:30N 29°47' W 092°11'0 0.0
2017-Oct-25 11:00N 29°47' W 092°11'0 0.0
2017-Oct-25 10:30N 29°47' W 092°11'0 0.0
2017-Oct-25 10:00N 29°47' W 092°11'0 0.0
2017-Oct-25 09:30N 29°47' W 092°11'0 0.0
2017-Oct-25 09:00N 29°47' W 092°11'0 0.0
2017-Oct-25 08:30N 29°47' W 092°11'0 0.0
2017-Oct-25 08:00N 29°47' W 092°11'0 0.0
2017-Oct-25 07:30N 29°47' W 092°11'0 0.0
2017-Oct-25 07:00N 29°47' W 092°11'0 0.0
2017-Oct-25 06:30N 29°47' W 092°11'0 0.0
2017-Oct-25 06:00N 29°47' W 092°11'0 0.0
2017-Oct-25 05:30N 29°47' W 092°11'0 0.0
2017-Oct-25 05:00N 29°47' W 092°11'0 0.0
2017-Oct-25 04:30N 29°47' W 092°11'0 0.0
2017-Oct-25 04:00N 29°47' W 092°11'0 0.0
2017-Oct-25 03:30N 29°47' W 092°11'0 0.0
2017-Oct-25 03:00N 29°47' W 092°11'0 0.0
2017-Oct-25 02:30N 29°47' W 092°11'0 0.0
2017-Oct-25 02:00N 29°47' W 092°11'0 0.0
2017-Oct-25 01:30N 29°47' W 092°11'0 0.0
2017-Oct-25 01:00N 29°47' W 092°11'0 0.0
2017-Oct-25 00:30N 29°47' W 092°11'0 0.0
2017-Oct-25 00:00N 29°47' W 092°11'0 0.0
2017-Oct-24 23:30N 29°47' W 092°11'1 1.8
2017-Oct-24 23:00N 29°47' W 092°10'0 0.6
2017-Oct-24 22:30N 29°47' W 092°11'0 0.1
2017-Oct-24 22:00N 29°47' W 092°11'0 0.9
2017-Oct-24 21:30N 29°47' W 092°11'0 0.4
2017-Oct-24 21:00N 29°47' W 092°11'0 0.0
2017-Oct-24 20:30N 29°47' W 092°11'0 0.0
2017-Oct-24 20:00N 29°47' W 092°11'0 0.0
2017-Oct-24 19:30N 29°47' W 092°11'0 0.0
2017-Oct-24 19:00N 29°47' W 092°11'0 0.0
2017-Oct-24 18:30N 29°47' W 092°11'0 0.0
2017-Oct-24 18:00N 29°47' W 092°11'0 0.0
2017-Oct-24 17:30N 29°47' W 092°11'0 0.0
2017-Oct-24 17:00N 29°47' W 092°11'0 0.0
2017-Oct-24 16:30N 29°47' W 092°11'0 0.0
2017-Oct-24 16:00N 29°47' W 092°11'0 0.0
2017-Oct-24 15:30N 29°47' W 092°11'0 0.0
2017-Oct-24 15:00N 29°47' W 092°11'0 0.0
2017-Oct-24 14:30N 29°47' W 092°11'0 0.0
2017-Oct-24 14:00N 29°47' W 092°11'0 0.0
2017-Oct-24 13:30N 29°47' W 092°11'0 0.0
2017-Oct-24 13:00N 29°47' W 092°11'0 0.0
2017-Oct-24 12:30N 29°47' W 092°11'0 0.0
2017-Oct-24 12:00N 29°47' W 092°11'0 0.0
2017-Oct-24 11:30N 29°47' W 092°11'0 0.0
2017-Oct-24 11:00N 29°47' W 092°11'0 0.0
2017-Oct-24 10:30N 29°47' W 092°11'0 0.0
2017-Oct-24 10:00N 29°47' W 092°11'0 0.0
2017-Oct-24 09:30N 29°47' W 092°11'0 0.0
2017-Oct-24 09:00N 29°47' W 092°11'0 0.0
2017-Oct-24 08:30N 29°47' W 092°11'0 0.0
2017-Oct-24 08:00N 29°47' W 092°11'0 0.0
2017-Oct-24 07:30N 29°47' W 092°11'0 0.0
2017-Oct-24 07:00N 29°47' W 092°11'0 0.0
2017-Oct-24 06:30N 29°47' W 092°11'0 0.0
2017-Oct-24 06:00N 29°47' W 092°11'0 0.0
2017-Oct-24 05:30N 29°47' W 092°11'0 0.0
2017-Oct-24 05:00N 29°47' W 092°11'0 0.0
2017-Oct-24 04:30N 29°47' W 092°11'0 0.0
2017-Oct-24 04:00N 29°47' W 092°11'0 0.0
2017-Oct-24 03:30N 29°47' W 092°11'0 0.0
2017-Oct-24 03:00N 29°47' W 092°11'0 0.0
2017-Oct-24 02:30N 29°47' W 092°11'0 0.0
2017-Oct-24 02:00N 29°47' W 092°11'0 0.0
2017-Oct-24 01:30N 29°47' W 092°11'0 0.0
2017-Oct-24 01:00N 29°47' W 092°11'0 0.0
2017-Oct-24 00:30N 29°47' W 092°11'0 0.0
2017-Oct-24 00:00N 29°47' W 092°11'0 0.0
2017-Oct-23 23:30N 29°47' W 092°11'0 0.0
2017-Oct-23 23:00N 29°47' W 092°11'0 0.0
2017-Oct-23 22:30N 29°47' W 092°11'0 0.0
2017-Oct-23 22:00N 29°47' W 092°11'0 0.0
2017-Oct-23 21:30N 29°47' W 092°11'0 0.0
2017-Oct-23 21:00N 29°47' W 092°11'0 0.0
2017-Oct-23 20:30N 29°47' W 092°11'0 0.0
2017-Oct-23 20:00N 29°47' W 092°11'0 0.0
2017-Oct-23 19:30N 29°47' W 092°11'0 0.0
2017-Oct-23 19:00N 29°47' W 092°11'0 0.0
2017-Oct-23 18:30N 29°47' W 092°11'0 0.0
2017-Oct-23 18:00N 29°47' W 092°11'0 0.0
2017-Oct-23 17:30N 29°47' W 092°11'0 0.0
2017-Oct-23 17:00N 29°47' W 092°11'0 0.0
2017-Oct-23 16:30N 29°47' W 092°11'0 0.0
2017-Oct-23 16:00N 29°47' W 092°11'0 0.5
2017-Oct-23 15:30N 29°47' W 092°11'0 0.8
2017-Oct-23 15:00N 29°47' W 092°11'1 1.2
2017-Oct-23 14:30N 29°47' W 092°11'0 0.0
2017-Oct-23 14:00N 29°47' W 092°11'0 0.6
2017-Oct-23 13:30N 29°47' W 092°11'1 1.2
2017-Oct-23 13:00N 29°47' W 092°10'0 0.0
2017-Oct-23 12:30N 29°47' W 092°10'0 0.0
2017-Oct-23 12:00N 29°47' W 092°10'0 0.2
2017-Oct-23 11:30N 29°47' W 092°10'1 0.1
2017-Oct-23 03:07N 29°47' W 092°11'0 0.1
2017-Oct-23 03:00N 29°47' W 092°11'0 0.0
2017-Oct-23 02:30N 29°47' W 092°11'0 0.0
2017-Oct-23 02:00N 29°47' W 092°11'0 0.0
2017-Oct-23 01:30N 29°47' W 092°11'0 0.0
2017-Oct-23 01:00N 29°47' W 092°11'0 0.0
2017-Oct-23 00:30N 29°47' W 092°11'0 0.0
2017-Oct-23 00:00N 29°47' W 092°11'0 0.0
2017-Oct-22 23:30N 29°47' W 092°11'0 0.0
2017-Oct-22 23:00N 29°47' W 092°11'0 0.0
2017-Oct-22 22:30N 29°47' W 092°11'0 0.0
2017-Oct-22 22:00N 29°47' W 092°11'0 0.0
2017-Oct-22 21:30N 29°47' W 092°11'0 0.0
2017-Oct-22 21:00N 29°47' W 092°11'0 0.0
2017-Oct-22 20:30N 29°47' W 092°11'0 0.0
2017-Oct-22 20:00N 29°47' W 092°11'0 0.0
2017-Oct-22 19:30N 29°47' W 092°11'0 0.0
2017-Oct-22 19:00N 29°47' W 092°11'0 0.0
2017-Oct-22 18:30N 29°47' W 092°11'0 0.0
2017-Oct-22 18:00N 29°47' W 092°11'0 0.0
2017-Oct-22 17:30N 29°47' W 092°11'0 0.0
2017-Oct-22 17:00N 29°47' W 092°11'0 0.0
2017-Oct-22 16:30N 29°47' W 092°11'0 0.0
2017-Oct-22 16:00N 29°47' W 092°11'0 0.0
2017-Oct-22 15:30N 29°47' W 092°11'0 0.0
2017-Oct-22 15:00N 29°47' W 092°11'0 0.0
2017-Oct-22 14:30N 29°47' W 092°11'0 0.0
2017-Oct-22 14:00N 29°47' W 092°11'0 0.0
2017-Oct-22 13:30N 29°47' W 092°11'0 0.0
2017-Oct-22 13:00N 29°47' W 092°11'0 0.0
2017-Oct-22 12:30N 29°47' W 092°11'0 0.0
2017-Oct-22 12:00N 29°47' W 092°11'0 0.0
2017-Oct-22 11:30N 29°47' W 092°11'0 0.0
2017-Oct-22 11:00N 29°47' W 092°11'0 0.0
2017-Oct-22 10:30N 29°47' W 092°11'0 0.0
2017-Oct-22 10:00N 29°47' W 092°11'0 0.0
2017-Oct-22 09:30N 29°47' W 092°11'0 0.0
2017-Oct-22 09:00N 29°47' W 092°11'0 0.0
2017-Oct-22 08:30N 29°47' W 092°11'0 0.0
2017-Oct-22 08:00N 29°47' W 092°11'0 0.0
2017-Oct-22 07:30N 29°47' W 092°11'0 0.0
2017-Oct-22 07:00N 29°47' W 092°11'0 0.0
2017-Oct-22 06:30N 29°47' W 092°11'0 0.0
2017-Oct-22 06:00N 29°47' W 092°11'0 0.0
2017-Oct-22 05:30N 29°47' W 092°11'0 0.0
2017-Oct-22 05:00N 29°47' W 092°11'0 0.0
2017-Oct-22 04:30N 29°47' W 092°11'0 0.0
2017-Oct-22 04:00N 29°47' W 092°11'0 0.0
2017-Oct-22 03:30N 29°47' W 092°11'0 0.0
2017-Oct-22 03:00N 29°47' W 092°11'0 0.0
2017-Oct-22 02:30N 29°47' W 092°11'0 0.0
2017-Oct-22 02:00N 29°47' W 092°11'0 0.0
2017-Oct-22 01:30N 29°47' W 092°11'0 0.0
2017-Oct-22 01:00N 29°47' W 092°11'0 0.0
2017-Oct-22 00:30N 29°47' W 092°11'0 0.0
2017-Oct-22 00:00N 29°47' W 092°11'0 0.0
2017-Oct-21 23:30N 29°47' W 092°11'0 0.0
2017-Oct-21 23:00N 29°47' W 092°11'0 0.0
2017-Oct-21 22:30N 29°47' W 092°11'0 0.0
2017-Oct-21 22:00N 29°47' W 092°11'0 0.0
2017-Oct-21 21:30N 29°47' W 092°11'0 0.0
2017-Oct-21 21:00N 29°47' W 092°11'0 0.0
2017-Oct-21 20:30N 29°47' W 092°11'0 0.0
2017-Oct-21 20:00N 29°47' W 092°11'0 0.0
2017-Oct-21 19:30N 29°47' W 092°11'0 0.0
2017-Oct-21 19:00N 29°47' W 092°11'0 0.0
2017-Oct-21 18:30N 29°47' W 092°11'0 0.0
2017-Oct-21 18:00N 29°47' W 092°11'0 0.0
2017-Oct-21 17:30N 29°47' W 092°11'0 0.0
2017-Oct-21 17:00N 29°47' W 092°11'0 0.0
2017-Oct-21 16:30N 29°47' W 092°11'0 0.0
2017-Oct-21 16:01N 29°47' W 092°11'0 0.0
2017-Oct-21 15:30N 29°47' W 092°11'0 0.0
2017-Oct-21 15:00N 29°47' W 092°11'0 0.0
2017-Oct-21 14:00N 29°47' W 092°11'0 0.0
2017-Oct-21 13:30N 29°47' W 092°11'0 0.0
2017-Oct-21 13:00N 29°47' W 092°11'0 0.0
2017-Oct-21 12:30N 29°47' W 092°11'0 0.0
2017-Oct-21 12:00N 29°47' W 092°11'0 0.0
2017-Oct-21 11:30N 29°47' W 092°11'0 0.0
2017-Oct-21 11:00N 29°47' W 092°11'0 0.0
2017-Oct-21 10:30N 29°47' W 092°11'  

Dump ship's entire track history